createdAt,value
2023-12-10T00:01:19.970Z,40.80
2023-12-10T00:03:47.363Z,37.30
2023-12-10T00:06:15.182Z,40.17
2023-12-10T00:08:42.646Z,40.63
2023-12-10T00:11:10.192Z,41.58
2023-12-10T00:13:37.435Z,43.33
2023-12-10T00:16:05.236Z,39.72
2023-12-10T00:18:32.511Z,40.03
2023-12-10T00:21:00.214Z,37.60
2023-12-10T00:23:27.470Z,37.90
2023-12-10T00:25:55.013Z,41.10
2023-12-10T00:28:22.303Z,40.20
2023-12-10T00:30:49.862Z,40.22
2023-12-10T00:33:17.513Z,38.60
2023-12-10T00:35:45.187Z,39.85
2023-12-10T00:38:12.451Z,42.45
2023-12-10T00:40:40.015Z,40.33
2023-12-10T00:43:07.268Z,38.88
2023-12-10T00:45:34.903Z,38.95
2023-12-10T00:48:02.740Z,40.38
2023-12-10T00:50:30.338Z,39.70
2023-12-10T00:52:57.500Z,41.30
2023-12-10T00:55:25.019Z,40.35
2023-12-10T00:57:52.308Z,39.10
2023-12-10T01:00:20.840Z,40.13
2023-12-10T01:02:48.079Z,41.10
2023-12-10T01:05:18.044Z,39.03
2023-12-10T01:07:45.348Z,40.70
2023-12-10T01:10:13.094Z,41.53
2023-12-10T01:12:40.684Z,39.05
2023-12-10T01:15:11.816Z,39.80
2023-12-10T01:17:39.352Z,40.63
2023-12-10T01:20:07.482Z,41.70
2023-12-10T01:22:34.719Z,40.47
2023-12-10T01:25:02.650Z,35.85
2023-12-10T01:27:29.955Z,39.28
2023-12-10T01:29:57.730Z,41.33
2023-12-10T01:32:25.286Z,41.30
2023-12-10T01:34:53.016Z,39.83
2023-12-10T01:37:20.310Z,39.45
2023-12-10T01:39:47.841Z,40.03
2023-12-10T01:42:15.241Z,42.03
2023-12-10T01:44:45.221Z,39.70
2023-12-10T01:47:15.292Z,42.17
2023-12-10T01:49:43.090Z,39.33
2023-12-10T01:52:11.089Z,38.15
2023-12-10T01:54:38.752Z,41.35
2023-12-10T01:57:08.956Z,39.95
2023-12-10T01:59:38.435Z,39.15
2023-12-10T02:02:07.344Z,36.40
2023-12-10T02:04:34.968Z,40.15
2023-12-10T02:07:02.298Z,40.95
2023-12-10T02:09:29.837Z,38.58
2023-12-10T02:11:58.098Z,36.45
2023-12-10T02:14:27.417Z,39.53
2023-12-10T02:16:55.820Z,39.75
2023-12-10T02:19:23.879Z,41.75
2023-12-10T02:21:53.063Z,37.65
2023-12-10T02:24:31.499Z,37.42
2023-12-10T02:26:59.033Z,40.13
2023-12-10T02:29:26.705Z,38.20
2023-12-10T02:31:55.372Z,37.83
2023-12-10T02:34:23.843Z,36.78
2023-12-10T02:36:51.195Z,40.08
2023-12-10T02:39:19.412Z,40.50
2023-12-10T02:41:47.138Z,36.63
2023-12-10T02:44:14.661Z,36.88
2023-12-10T02:46:46.083Z,35.60
2023-12-10T02:49:13.969Z,39.95
2023-12-10T02:51:41.333Z,34.53
2023-12-10T02:54:09.007Z,35.38
2023-12-10T02:56:36.209Z,35.70
2023-12-10T02:59:03.833Z,36.97
2023-12-10T03:01:31.198Z,37.10
2023-12-10T03:03:58.854Z,33.40
2023-12-10T03:06:28.513Z,37.00
2023-12-10T03:08:56.092Z,40.13
2023-12-10T03:11:23.663Z,35.83
2023-12-10T03:13:51.152Z,37.38
2023-12-10T03:16:20.105Z,39.08
2023-12-10T03:18:48.255Z,37.88
2023-12-10T03:21:15.715Z,37.47
2023-12-10T03:23:43.233Z,37.58
2023-12-10T03:26:10.455Z,35.50
2023-12-10T03:28:37.952Z,35.42
2023-12-10T03:31:05.598Z,33.47
2023-12-10T03:33:34.899Z,34.40
2023-12-10T03:36:02.547Z,35.60
2023-12-10T03:38:31.257Z,36.15
2023-12-10T03:40:58.598Z,32.95
2023-12-10T03:43:28.276Z,33.50
2023-12-10T03:45:55.789Z,35.17
2023-12-10T03:48:23.736Z,35.78
2023-12-10T03:50:52.606Z,33.55
2023-12-10T03:53:20.400Z,33.45
2023-12-10T03:55:47.683Z,35.45
2023-12-10T03:58:15.345Z,36.78
2023-12-10T04:00:42.661Z,34.35
2023-12-10T04:03:10.457Z,36.58
2023-12-10T04:05:37.967Z,35.13
2023-12-10T04:08:05.518Z,36.17
2023-12-10T04:10:32.684Z,34.80
2023-12-10T04:13:00.335Z,32.47
2023-12-10T04:15:28.441Z,33.53
2023-12-10T04:17:56.113Z,34.25
2023-12-10T04:20:23.371Z,31.50
2023-12-10T04:22:50.904Z,31.13
2023-12-10T04:25:18.095Z,32.47
2023-12-10T04:27:45.786Z,32.08
2023-12-10T04:30:13.375Z,31.50
2023-12-10T04:32:43.283Z,30.05
2023-12-10T04:35:12.132Z,32.72
2023-12-10T04:37:39.679Z,31.80
2023-12-10T04:40:07.649Z,32.33
2023-12-10T04:42:35.371Z,30.35
2023-12-10T04:45:02.743Z,28.20
2023-12-10T04:47:30.270Z,30.30
2023-12-10T04:49:57.449Z,32.35
2023-12-10T04:52:25.041Z,29.58
2023-12-10T04:54:52.312Z,28.08
2023-12-10T04:57:19.792Z,31.33
2023-12-10T04:59:47.192Z,31.33
2023-12-10T05:02:14.724Z,31.55
2023-12-10T05:04:42.137Z,29.83
2023-12-10T05:07:09.731Z,29.50
2023-12-10T05:09:36.947Z,28.88
2023-12-10T05:12:04.952Z,31.10
2023-12-10T05:14:32.120Z,30.58
2023-12-10T05:17:00.377Z,29.67
2023-12-10T05:19:28.027Z,29.40
2023-12-10T05:21:55.820Z,27.02
2023-12-10T05:24:23.240Z,29.52
2023-12-10T05:26:51.140Z,26.02
2023-12-10T05:29:18.344Z,27.52
2023-12-10T05:31:46.006Z,29.67
2023-12-10T05:34:13.338Z,28.90
2023-12-10T05:36:40.973Z,30.20
2023-12-10T05:39:08.448Z,27.75
2023-12-10T05:41:36.190Z,29.58
2023-12-10T05:44:03.610Z,29.35
2023-12-10T05:46:31.112Z,29.02
2023-12-10T05:48:58.848Z,29.70
2023-12-10T05:51:26.671Z,27.25
2023-12-10T05:53:57.046Z,28.60
2023-12-10T05:56:26.734Z,25.13
2023-12-10T05:58:53.903Z,29.17
2023-12-10T06:01:21.644Z,28.80
2023-12-10T06:03:48.961Z,29.80
2023-12-10T06:06:16.711Z,29.10
2023-12-10T06:08:44.001Z,26.30
2023-12-10T06:11:13.676Z,28.13
2023-12-10T06:13:43.899Z,27.67
2023-12-10T06:16:12.596Z,26.52
2023-12-10T06:18:39.861Z,26.35
2023-12-10T06:21:07.562Z,27.73
2023-12-10T06:23:34.771Z,26.48
2023-12-10T06:26:02.810Z,28.58
2023-12-10T06:28:30.044Z,26.88
2023-12-10T06:30:59.443Z,27.98
2023-12-10T06:33:26.979Z,28.65
2023-12-10T06:35:54.604Z,28.02
2023-12-10T06:38:21.764Z,28.05
2023-12-10T06:40:49.371Z,28.02
2023-12-10T06:43:16.687Z,25.50
2023-12-10T06:45:44.297Z,27.38
2023-12-10T06:48:11.656Z,28.70
2023-12-10T06:50:39.227Z,27.17
2023-12-10T06:53:06.451Z,28.38
2023-12-10T06:55:34.068Z,27.55
2023-12-10T06:58:01.488Z,24.63
2023-12-10T07:00:29.268Z,27.55
2023-12-10T07:02:56.685Z,29.27
2023-12-10T07:05:24.404Z,29.95
2023-12-10T07:07:51.816Z,26.67
2023-12-10T07:10:19.371Z,28.40
2023-12-10T07:12:46.675Z,28.10
2023-12-10T07:15:14.456Z,30.75
2023-12-10T07:17:41.979Z,28.65
2023-12-10T07:20:10.756Z,27.13
2023-12-10T07:22:38.189Z,28.13
2023-12-10T07:25:06.212Z,30.88
2023-12-10T07:27:33.712Z,32.17
2023-12-10T07:30:01.279Z,31.77
2023-12-10T07:32:28.981Z,28.98
2023-12-10T07:34:57.328Z,25.33
2023-12-10T07:37:24.692Z,27.80
2023-12-10T07:39:52.354Z,30.33
2023-12-10T07:42:20.259Z,30.58
2023-12-10T07:44:47.973Z,29.60
2023-12-10T07:47:15.167Z,29.10
2023-12-10T07:49:43.500Z,27.42
2023-12-10T07:52:10.843Z,28.77
2023-12-10T07:54:38.863Z,28.73
2023-12-10T07:57:06.414Z,25.85
2023-12-10T07:59:33.922Z,28.60
2023-12-10T08:02:01.239Z,28.08
2023-12-10T08:04:28.884Z,29.75
2023-12-10T08:06:56.559Z,27.60
2023-12-10T08:09:24.171Z,26.83
2023-12-10T08:11:51.471Z,26.83
2023-12-10T08:14:18.993Z,26.52
2023-12-10T08:16:46.223Z,27.52
2023-12-10T08:19:13.866Z,26.40
2023-12-10T08:21:44.918Z,26.70
2023-12-10T08:24:12.486Z,27.70
2023-12-10T08:26:39.726Z,28.33
2023-12-10T08:29:07.212Z,28.05
2023-12-10T08:31:34.367Z,26.10
2023-12-10T08:34:02.385Z,26.50
2023-12-10T08:36:29.749Z,25.27
2023-12-10T08:38:57.401Z,26.83
2023-12-10T08:41:24.639Z,25.45
2023-12-10T08:43:52.100Z,28.08
2023-12-10T08:46:19.421Z,26.45
2023-12-10T08:48:47.472Z,24.58
2023-12-10T08:51:15.101Z,26.50
2023-12-10T08:53:42.613Z,28.50
2023-12-10T08:56:10.136Z,26.52
2023-12-10T08:58:37.835Z,23.52
2023-12-10T09:01:06.801Z,25.27
2023-12-10T09:03:34.686Z,24.33
2023-12-10T09:06:02.033Z,25.55
2023-12-10T09:08:31.117Z,26.05
2023-12-10T09:10:58.623Z,23.40
2023-12-10T09:13:27.812Z,25.30
2023-12-10T09:15:55.357Z,25.63
2023-12-10T09:18:23.071Z,26.35
2023-12-10T09:20:50.383Z,27.52
2023-12-10T09:23:17.887Z,25.35
2023-12-10T09:25:45.491Z,23.35
2023-12-10T09:28:13.460Z,24.20
2023-12-10T09:30:41.056Z,25.95
2023-12-10T09:33:08.639Z,27.25
2023-12-10T09:35:36.802Z,27.70
2023-12-10T09:38:04.479Z,24.85
2023-12-10T09:40:34.981Z,24.38
2023-12-10T09:43:05.241Z,24.48
2023-12-10T09:45:33.610Z,26.85
2023-12-10T09:48:02.674Z,26.30
2023-12-10T09:50:32.313Z,24.77
2023-12-10T09:52:59.897Z,25.13
2023-12-10T09:55:27.168Z,23.08
2023-12-10T09:57:54.754Z,24.08
2023-12-10T10:00:22.391Z,25.50
2023-12-10T10:02:50.032Z,25.52
2023-12-10T10:05:17.658Z,24.33
2023-12-10T10:07:45.316Z,21.25
2023-12-10T10:10:13.441Z,22.92
2023-12-10T10:12:41.223Z,22.42
2023-12-10T10:15:08.943Z,22.08
2023-12-10T10:17:38.234Z,23.00
2023-12-10T10:20:06.287Z,23.17
2023-12-10T10:22:34.082Z,21.33
2023-12-10T10:25:02.039Z,21.70
2023-12-10T10:27:32.940Z,18.83
2023-12-10T10:30:00.834Z,23.58
2023-12-10T10:32:29.898Z,23.85
2023-12-10T10:34:58.391Z,23.48
2023-12-10T10:37:26.038Z,24.67
2023-12-10T10:39:53.892Z,25.48
2023-12-10T10:42:21.703Z,24.13
2023-12-10T10:44:49.162Z,24.83
2023-12-10T10:47:19.893Z,25.52
2023-12-10T10:50:19.813Z,24.10
2023-12-10T10:52:43.866Z,24.88
2023-12-10T10:55:12.211Z,24.85
2023-12-10T10:57:40.567Z,25.83
2023-12-10T11:00:20.934Z,24.27
2023-12-10T11:02:53.819Z,23.83
2023-12-10T11:05:37.368Z,24.63
2023-12-10T11:08:06.415Z,24.50
2023-12-10T11:10:35.423Z,24.50
2023-12-10T11:13:06.373Z,25.83
2023-12-10T11:15:33.782Z,21.23
2023-12-10T11:18:03.285Z,20.75
2023-12-10T11:20:41.861Z,21.98
2023-12-10T11:23:10.316Z,20.63
2023-12-10T11:25:38.636Z,22.30
2023-12-10T11:28:18.805Z,21.75
2023-12-10T11:30:47.474Z,21.33
2023-12-10T11:33:16.380Z,20.05
2023-12-10T11:35:44.156Z,24.98
2023-12-10T11:38:31.680Z,23.27
2023-12-10T11:40:59.311Z,21.98
2023-12-10T11:43:27.476Z,22.08
2023-12-10T11:45:55.310Z,24.65
2023-12-10T11:48:23.189Z,21.77
2023-12-10T11:50:50.868Z,22.77
2023-12-10T11:53:18.435Z,23.45
2023-12-10T11:55:46.102Z,22.80
2023-12-10T11:58:16.327Z,22.08
2023-12-10T12:00:58.378Z,20.85
2023-12-10T12:03:26.345Z,23.73
2023-12-10T12:05:54.702Z,22.23
2023-12-10T12:08:27.419Z,22.65
2023-12-10T12:10:56.294Z,21.95
2023-12-10T12:13:24.523Z,21.05
2023-12-10T12:15:52.634Z,23.08
2023-12-10T12:18:26.246Z,24.02
2023-12-10T12:20:53.852Z,25.48
2023-12-10T12:23:21.485Z,25.75
2023-12-10T12:25:48.746Z,25.30
2023-12-10T12:28:16.433Z,24.67
2023-12-10T12:30:43.701Z,26.42
2023-12-10T12:33:11.657Z,25.55
2023-12-10T12:35:38.925Z,25.00
2023-12-10T12:38:06.554Z,26.42
2023-12-10T12:40:33.954Z,23.80
2023-12-10T12:43:01.581Z,25.30
2023-12-10T12:45:28.951Z,24.75
2023-12-10T12:47:56.764Z,24.48
2023-12-10T12:50:24.024Z,25.88
2023-12-10T12:52:53.970Z,25.52
2023-12-10T12:55:23.244Z,25.27
2023-12-10T12:57:50.971Z,27.67
2023-12-10T13:00:18.837Z,23.40
2023-12-10T13:02:47.221Z,24.98
2023-12-10T13:05:14.828Z,25.00
2023-12-10T13:07:42.337Z,25.17
2023-12-10T13:10:11.100Z,23.88
2023-12-10T13:12:39.591Z,23.63
2023-12-10T13:15:08.121Z,22.98
2023-12-10T13:17:35.936Z,25.98
2023-12-10T13:20:04.514Z,23.27
2023-12-10T13:22:32.012Z,23.42
2023-12-10T13:25:00.552Z,23.63
2023-12-10T13:27:29.194Z,23.48
2023-12-10T13:29:57.561Z,23.25
2023-12-10T13:32:25.188Z,23.58
2023-12-10T13:34:52.697Z,23.55
2023-12-10T13:37:20.362Z,27.30
2023-12-10T13:39:47.627Z,25.73
2023-12-10T13:42:17.282Z,25.83
2023-12-10T13:44:44.636Z,25.92
2023-12-10T13:47:13.484Z,27.27
2023-12-10T13:49:42.485Z,25.98
2023-12-10T13:52:10.213Z,26.35
2023-12-10T13:54:38.260Z,23.80
2023-12-10T13:57:06.317Z,26.25
2023-12-10T13:59:33.519Z,24.98
2023-12-10T14:02:01.126Z,24.80
2023-12-10T14:04:28.625Z,24.95
2023-12-10T14:06:56.468Z,23.02
2023-12-10T14:09:23.774Z,23.33
2023-12-10T14:11:51.264Z,22.20
2023-12-10T14:14:18.489Z,24.48
2023-12-10T14:16:46.845Z,23.50
2023-12-10T14:19:14.448Z,23.73
2023-12-10T14:21:42.122Z,24.17
2023-12-10T14:24:10.891Z,22.67
2023-12-10T14:26:39.019Z,25.45
2023-12-10T14:29:06.457Z,24.33
2023-12-10T14:31:33.944Z,21.77
2023-12-10T14:34:01.246Z,23.55
2023-12-10T14:36:28.872Z,24.00
2023-12-10T14:38:56.074Z,26.80
2023-12-10T14:41:23.739Z,25.75
2023-12-10T14:43:51.490Z,25.85
2023-12-10T14:46:19.101Z,24.92
2023-12-10T14:48:46.445Z,26.83
2023-12-10T14:51:14.197Z,29.40
2023-12-10T14:53:42.114Z,28.60
2023-12-10T14:56:10.193Z,25.52
2023-12-10T14:58:37.425Z,26.48
2023-12-10T15:01:05.257Z,25.58
2023-12-10T15:03:32.682Z,26.75
2023-12-10T15:06:00.486Z,26.58
2023-12-10T15:08:30.425Z,28.52
2023-12-10T15:10:58.357Z,27.35
2023-12-10T15:13:25.968Z,26.70
2023-12-10T15:15:54.341Z,27.38
2023-12-10T15:18:21.604Z,28.02
2023-12-10T15:20:49.261Z,28.55
2023-12-10T15:23:17.329Z,29.95
2023-12-10T15:25:44.953Z,27.63
2023-12-10T15:28:12.247Z,26.60
2023-12-10T15:30:39.894Z,27.55
2023-12-10T15:33:07.142Z,26.90
2023-12-10T15:35:34.869Z,28.50
2023-12-10T15:38:03.043Z,24.20
2023-12-10T15:40:32.579Z,27.13
2023-12-10T15:42:59.993Z,27.95
2023-12-10T15:45:27.739Z,26.88
2023-12-10T15:47:55.180Z,27.38
2023-12-10T15:50:22.846Z,27.42
2023-12-10T15:52:50.057Z,26.65
2023-12-10T15:55:17.591Z,27.63
2023-12-10T15:57:45.492Z,28.27
2023-12-10T16:00:13.590Z,26.67
2023-12-10T16:02:41.773Z,25.50
2023-12-10T16:05:09.458Z,27.55
2023-12-10T16:07:45.726Z,26.73
2023-12-10T16:10:20.356Z,26.80
2023-12-10T16:12:47.687Z,27.02
2023-12-10T16:15:15.892Z,27.05
2023-12-10T16:17:43.195Z,29.40
2023-12-10T16:20:12.462Z,26.58
2023-12-10T16:22:39.864Z,26.40
2023-12-10T16:25:07.675Z,24.42
2023-12-10T16:27:37.301Z,26.40
2023-12-10T16:30:05.379Z,28.30
2023-12-10T16:32:32.596Z,31.42
2023-12-10T16:35:00.711Z,28.92
2023-12-10T16:37:28.999Z,28.42
2023-12-10T16:39:59.571Z,26.33
2023-12-10T16:42:31.243Z,26.17
2023-12-10T16:44:59.822Z,28.70
2023-12-10T16:47:27.267Z,26.75
2023-12-10T16:49:55.099Z,31.75
2023-12-10T16:52:22.609Z,25.50
2023-12-10T16:54:50.256Z,24.95
2023-12-10T16:57:17.600Z,26.00
2023-12-10T16:59:45.274Z,27.33
2023-12-10T17:02:12.582Z,27.75
2023-12-10T17:04:40.320Z,26.75
2023-12-10T17:07:07.833Z,26.40
2023-12-10T17:09:35.395Z,25.73
2023-12-10T17:12:02.720Z,27.13
2023-12-10T17:14:30.529Z,26.02
2023-12-10T17:16:57.886Z,32.47
2023-12-10T17:19:25.606Z,28.08
2023-12-10T17:21:53.035Z,25.98
2023-12-10T17:24:20.819Z,25.80
2023-12-10T17:26:48.191Z,30.35
2023-12-10T17:29:15.889Z,29.55
2023-12-10T17:31:43.167Z,28.30
2023-12-10T17:34:10.915Z,28.40
2023-12-10T17:36:38.392Z,28.52
2023-12-10T17:39:06.103Z,30.75
2023-12-10T17:41:33.361Z,32.00
2023-12-10T17:44:00.838Z,34.47
2023-12-10T17:46:28.208Z,28.92
2023-12-10T17:48:55.721Z,28.33
2023-12-10T17:51:23.797Z,30.20
2023-12-10T17:53:51.841Z,29.48
2023-12-10T17:56:19.148Z,30.85
2023-12-10T17:58:46.737Z,28.60
2023-12-10T18:01:14.524Z,29.65
2023-12-10T18:03:42.402Z,31.10
2023-12-10T18:06:09.765Z,31.23
2023-12-10T18:08:37.356Z,30.90
2023-12-10T18:11:05.319Z,29.33
2023-12-10T18:13:32.854Z,31.77
2023-12-10T18:16:00.389Z,33.88
2023-12-10T18:18:29.848Z,31.25
2023-12-10T18:21:00.826Z,28.95
2023-12-10T18:23:28.526Z,28.35
2023-12-10T18:25:56.091Z,30.08
2023-12-10T18:28:23.601Z,31.73
2023-12-10T18:30:50.984Z,30.67
2023-12-10T18:33:18.753Z,29.27
2023-12-10T18:35:46.346Z,27.38
2023-12-10T18:38:14.267Z,28.58
2023-12-10T18:40:41.753Z,27.02
2023-12-10T18:43:09.402Z,29.08
2023-12-10T18:45:37.387Z,30.13
2023-12-10T18:48:05.592Z,33.95
2023-12-10T18:50:33.004Z,27.80
2023-12-10T18:53:03.112Z,28.50
2023-12-10T18:55:30.580Z,27.98
2023-12-10T18:57:58.160Z,28.80
2023-12-10T19:00:25.510Z,30.15
2023-12-10T19:02:53.215Z,31.88
2023-12-10T19:05:20.638Z,32.20
2023-12-10T19:07:48.819Z,33.17
2023-12-10T19:10:16.370Z,31.15
2023-12-10T19:12:44.193Z,30.02
2023-12-10T19:15:11.670Z,28.33
2023-12-10T19:17:39.558Z,32.13
2023-12-10T19:20:19.183Z,31.70
2023-12-10T19:22:46.868Z,33.65
2023-12-10T19:25:14.584Z,32.50
2023-12-10T19:27:42.838Z,32.28
2023-12-10T19:30:11.500Z,29.52
2023-12-10T19:32:39.210Z,31.45
2023-12-10T19:35:09.298Z,31.02
2023-12-10T19:37:38.236Z,31.20
2023-12-10T19:40:06.842Z,32.38
2023-12-10T19:42:34.684Z,32.22
2023-12-10T19:45:04.788Z,30.13
2023-12-10T19:47:33.123Z,33.83
2023-12-10T19:50:00.819Z,30.98
2023-12-10T19:52:28.388Z,29.48
2023-12-10T19:54:55.666Z,31.00
2023-12-10T19:57:23.227Z,35.25
2023-12-10T19:59:50.440Z,34.00
2023-12-10T20:02:18.272Z,30.25
2023-12-10T20:04:45.769Z,31.95
2023-12-10T20:07:13.413Z,32.97
2023-12-10T20:09:40.857Z,33.00
2023-12-10T20:12:09.139Z,31.60
2023-12-10T20:14:36.720Z,32.33
2023-12-10T20:17:04.644Z,32.15
2023-12-10T20:19:32.864Z,31.63
2023-12-10T20:22:00.497Z,30.73
2023-12-10T20:24:34.740Z,28.63
2023-12-10T20:27:04.461Z,30.20
2023-12-10T20:29:31.802Z,31.80
2023-12-10T20:31:59.271Z,35.00
2023-12-10T20:34:32.802Z,30.30
2023-12-10T20:37:02.838Z,24.13
2023-12-10T20:39:30.134Z,30.70
2023-12-10T20:41:57.674Z,32.20
2023-12-10T20:44:24.871Z,34.58
2023-12-10T20:46:52.404Z,30.92
2023-12-10T20:49:19.702Z,29.17
2023-12-10T20:51:48.429Z,35.47
2023-12-10T20:54:16.451Z,32.60
2023-12-10T20:56:43.983Z,32.65
2023-12-10T20:59:11.318Z,30.02
2023-12-10T21:01:39.142Z,34.85
2023-12-10T21:04:06.469Z,33.92
2023-12-10T21:06:34.319Z,34.92
2023-12-10T21:09:01.670Z,35.25
2023-12-10T21:11:29.192Z,33.92
2023-12-10T21:13:56.695Z,33.05
2023-12-10T21:16:24.295Z,34.45
2023-12-10T21:18:51.684Z,37.30
2023-12-10T21:21:19.321Z,32.33
2023-12-10T21:23:46.772Z,33.00
2023-12-10T21:26:14.323Z,38.47
2023-12-10T21:28:43.830Z,35.40
2023-12-10T21:31:11.429Z,34.63
2023-12-10T21:33:38.840Z,34.35
2023-12-10T21:36:06.934Z,34.30
2023-12-10T21:38:34.247Z,36.05
2023-12-10T21:41:01.908Z,35.15
2023-12-10T21:43:29.273Z,36.28
2023-12-10T21:45:56.797Z,35.40
2023-12-10T21:48:24.086Z,33.35
2023-12-10T21:50:51.869Z,34.20
2023-12-10T21:53:19.150Z,36.72
2023-12-10T21:55:46.696Z,36.22
2023-12-10T21:58:14.088Z,36.17
2023-12-10T22:00:41.814Z,35.30
2023-12-10T22:03:10.079Z,33.80
2023-12-10T22:05:37.994Z,37.67
2023-12-10T22:08:08.973Z,36.00
2023-12-10T22:10:36.465Z,33.78
2023-12-10T22:13:03.706Z,37.60
2023-12-10T22:15:31.302Z,37.20
2023-12-10T22:17:58.720Z,37.17
2023-12-10T22:20:26.297Z,35.78
2023-12-10T22:22:53.625Z,35.95
2023-12-10T22:25:21.851Z,38.10
2023-12-10T22:27:49.184Z,34.53
2023-12-10T22:30:17.002Z,36.40
2023-12-10T22:32:45.416Z,35.65
2023-12-10T22:35:13.184Z,37.65
2023-12-10T22:37:41.781Z,38.45
2023-12-10T22:40:09.911Z,35.92
2023-12-10T22:42:37.187Z,35.67
2023-12-10T22:45:05.166Z,37.85
2023-12-10T22:47:32.677Z,35.90
2023-12-10T22:50:00.595Z,35.38
2023-12-10T22:52:27.952Z,35.15
2023-12-10T22:54:55.529Z,33.90
2023-12-10T22:57:22.913Z,34.95
2023-12-10T22:59:53.832Z,35.15
2023-12-10T23:02:22.051Z,34.92
2023-12-10T23:04:50.193Z,33.63
2023-12-10T23:07:17.500Z,36.15
2023-12-10T23:09:44.939Z,37.70
2023-12-10T23:12:12.162Z,34.65
2023-12-10T23:14:39.650Z,34.83
2023-12-10T23:17:07.060Z,33.70
2023-12-10T23:19:34.815Z,34.25
2023-12-10T23:22:02.107Z,36.92
2023-12-10T23:24:29.876Z,34.90
2023-12-10T23:26:57.119Z,33.95
2023-12-10T23:29:24.745Z,34.20
2023-12-10T23:31:52.302Z,33.20
2023-12-10T23:34:19.817Z,33.90
2023-12-10T23:36:47.540Z,34.80
2023-12-10T23:39:15.477Z,34.65
2023-12-10T23:41:42.756Z,31.60
2023-12-10T23:44:10.672Z,34.13
2023-12-10T23:46:42.207Z,30.88
2023-12-10T23:49:10.433Z,33.53
2023-12-10T23:51:37.783Z,34.03
2023-12-10T23:54:05.553Z,33.17
2023-12-10T23:56:32.903Z,33.25
2023-12-10T23:59:00.397Z,31.92
